Time;durP1;ratioP1;P1;durP2;ratioP2;P2;SDS_P1;SDS_P2;PMS_P1;PMS_P2;Temp;Humidity;BMP_temperature;BMP_pressure;BME280_temperature;BME280_humidity;BME280_pressure;Samples;Min_cycle;Max_cycle;Signal;HPM_P1;HPM_P2
2022/09/18 00:01:23;;;;;;;0.80;0.80;;;22.10;66.10;;;;;;4993319;28;43460;-72
2022/09/18 00:03:51;;;;;;;0.90;0.90;;;22.00;65.80;;;;;;4981367;28;45937;-72
2022/09/18 00:06:21;;;;;;;0.90;0.90;;;22.00;65.80;;;;;;4974516;28;44349;-70
2022/09/18 00:08:51;;;;;;;0.90;0.90;;;22.00;65.90;;;;;;4996082;28;43435;-71
2022/09/18 00:11:20;;;;;;;1.10;1.10;;;22.00;66.40;;;;;;4999927;28;43459;-71
2022/09/18 00:13:48;;;;;;;0.90;0.90;;;22.00;66.00;;;;;;4978425;28;45578;-70
2022/09/18 00:16:16;;;;;;;0.90;0.90;;;22.20;65.70;;;;;;5000873;28;43353;-71
2022/09/18 00:18:44;;;;;;;1.00;1.00;;;22.30;65.20;;;;;;4988515;28;43401;-71
2022/09/18 00:21:13;;;;;;;1.00;1.00;;;22.40;64.90;;;;;;5001438;28;43500;-70
2022/09/18 00:23:41;;;;;;;0.93;0.93;;;22.40;64.60;;;;;;4992722;28;43886;-72
2022/09/18 00:26:10;;;;;;;1.03;1.03;;;22.40;64.70;;;;;;4983735;28;44623;-73
2022/09/18 00:28:38;;;;;;;0.80;0.80;;;22.30;65.00;;;;;;4997469;28;43434;-74
2022/09/18 00:31:07;;;;;;;1.10;1.10;;;22.20;65.30;;;;;;4995348;28;43672;-71
2022/09/18 00:33:36;;;;;;;0.87;0.87;;;22.20;65.70;;;;;;4981890;28;45727;-72
2022/09/18 00:36:05;;;;;;;0.90;0.90;;;22.10;65.50;;;;;;4973464;28;44289;-70
2022/09/18 00:38:33;;;;;;;0.70;0.70;;;22.10;65.60;;;;;;5006411;28;43444;-71
2022/09/18 00:41:01;;;;;;;0.90;0.90;;;22.00;65.60;;;;;;5000049;28;43821;-70
2022/09/18 00:43:32;;;;;;;0.87;0.87;;;22.00;66.10;;;;;;4993436;28;43863;-73
2022/09/18 00:46:01;;;;;;;1.10;1.10;;;22.00;66.10;;;;;;4979048;28;44656;-71
2022/09/18 00:48:33;;;;;;;1.00;1.00;;;22.10;65.80;;;;;;4985709;28;43421;-71
2022/09/18 00:51:01;;;;;;;1.00;1.00;;;22.20;65.40;;;;;;4999640;28;43570;-72
2022/09/18 00:53:29;;;;;;;0.90;0.90;;;22.20;65.30;;;;;;4994018;28;43695;-70
2022/09/18 00:55:57;;;;;;;0.90;0.90;;;22.20;65.40;;;;;;4997116;28;43365;-72
2022/09/18 00:58:25;;;;;;;0.80;0.80;;;22.10;65.60;;;;;;4974451;28;43468;-71
2022/09/18 01:00:55;;;;;;;0.90;0.90;;;22.20;65.60;;;;;;4990539;28;43434;-72
2022/09/18 01:03:23;;;;;;;0.83;0.83;;;22.10;65.70;;;;;;5000567;28;43870;-70
2022/09/18 01:05:57;;;;;;;0.80;0.80;;;22.10;65.60;;;;;;4974142;28;44369;-70
2022/09/18 01:08:30;;;;;;;1.00;1.00;;;22.00;66.00;;;;;;5002297;28;43478;-70
2022/09/18 01:11:09;;;;;;;1.00;1.00;;;22.00;66.10;;;;;;4981916;28;43386;-72
2022/09/18 01:13:41;;;;;;;0.90;0.90;;;22.00;65.90;;;;;;4975551;28;45856;-72
2022/09/18 01:16:14;;;;;;;0.80;0.80;;;22.00;65.90;;;;;;4997940;28;44739;-70
2022/09/18 01:18:45;;;;;;;0.70;0.70;;;22.00;65.90;;;;;;4991815;28;43863;-70
2022/09/18 01:21:15;;;;;;;1.00;1.00;;;21.90;66.40;;;;;;4991751;28;43468;-71
2022/09/18 01:24:22;;;;;;;0.80;0.80;;;21.90;66.20;;;;;;4987473;28;44006;-71
2022/09/18 01:26:55;;;;;;;0.80;0.80;;;22.10;65.90;;;;;;5001585;28;43433;-71
2022/09/18 01:29:43;;;;;;;0.97;0.97;;;22.20;65.40;;;;;;4993089;28;44006;-71
2022/09/18 01:32:15;;;;;;;0.90;0.90;;;22.30;65.00;;;;;;4981600;28;43455;-70
2022/09/18 01:34:45;;;;;;;0.80;0.80;;;22.30;64.80;;;;;;4975454;28;44398;-71
2022/09/18 01:37:17;;;;;;;0.60;0.60;;;22.30;64.90;;;;;;4972090;28;44565;-72
2022/09/18 01:39:46;;;;;;;0.97;0.97;;;22.20;65.20;;;;;;4977202;28;43428;-71
2022/09/18 01:42:14;;;;;;;0.70;0.70;;;22.10;65.60;;;;;;4974475;28;43582;-72
2022/09/18 01:44:44;;;;;;;0.80;0.80;;;22.10;65.80;;;;;;4994156;28;45590;-70
2022/09/18 01:47:14;;;;;;;0.90;0.90;;;22.00;65.60;;;;;;4972716;28;43480;-71
2022/09/18 01:49:43;;;;;;;0.80;0.80;;;22.00;65.80;;;;;;4974283;28;43990;-71
2022/09/18 01:52:15;;;;;;;0.60;0.60;;;21.90;65.80;;;;;;4975564;28;43589;-71
2022/09/18 01:54:45;;;;;;;0.73;0.73;;;21.90;66.30;;;;;;4987055;28;44120;-71
2022/09/18 01:57:14;;;;;;;0.90;0.90;;;21.90;66.20;;;;;;4996287;28;43433;-70
2022/09/18 01:59:44;;;;;;;0.70;0.70;;;21.90;66.00;;;;;;4970018;28;43440;-71
2022/09/18 02:02:15;;;;;;;0.60;0.60;;;21.90;66.10;;;;;;4977097;28;43581;-70
2022/09/18 02:04:43;;;;;;;0.90;0.90;;;21.90;66.10;;;;;;4989412;28;45623;-72
2022/09/18 02:07:14;;;;;;;0.73;0.73;;;21.90;66.60;;;;;;4978997;28;45340;-71
2022/09/18 02:09:42;;;;;;;0.60;0.60;;;21.90;66.40;;;;;;4975547;28;43459;-71
2022/09/18 02:12:15;;;;;;;0.70;0.70;;;21.90;66.20;;;;;;4974142;28;43482;-70
2022/09/18 02:14:48;;;;;;;0.63;0.63;;;21.80;66.10;;;;;;4977486;28;45582;-71
2022/09/18 02:17:34;;;;;;;1.00;1.00;;;21.80;66.10;;;;;;4969989;28;43386;-73
2022/09/18 02:20:04;;;;;;;0.80;0.80;;;21.80;66.60;;;;;;4993490;28;43366;-70
2022/09/18 02:22:32;;;;;;;0.60;0.60;;;21.90;66.30;;;;;;4978923;28;43494;-71
2022/09/18 02:25:02;;;;;;;0.73;0.73;;;22.10;65.90;;;;;;4974693;28;45954;-70
2022/09/18 02:27:30;;;;;;;0.70;0.70;;;22.20;65.30;;;;;;4976108;28;44557;-71
2022/09/18 02:30:00;;;;;;;0.80;0.80;;;22.30;65.00;;;;;;4986759;28;43974;-70
2022/09/18 02:32:29;;;;;;;0.87;0.87;;;22.30;64.90;;;;;;4986013;28;43562;-71
2022/09/18 02:34:57;;;;;;;0.60;0.60;;;22.20;64.90;;;;;;5002960;28;43852;-70
2022/09/18 02:37:33;;;;;;;0.60;0.60;;;22.10;65.10;;;;;;4984634;28;44279;-71
2022/09/18 02:40:08;;;;;;;0.60;0.60;;;22.00;65.50;;;;;;4973330;28;43389;-71
2022/09/18 02:42:41;;;;;;;0.80;0.80;;;22.00;65.80;;;;;;4973656;28;43581;-73
2022/09/18 02:45:15;;;;;;;0.80;0.80;;;22.00;65.70;;;;;;4997241;28;43611;-70
2022/09/18 02:47:49;;;;;;;0.87;0.87;;;21.90;65.80;;;;;;4982315;28;43460;-72
2022/09/18 02:50:20;;;;;;;0.70;0.70;;;21.90;65.90;;;;;;4972426;28;43419;-71
2022/09/18 02:52:51;;;;;;;0.90;0.90;;;21.90;66.30;;;;;;4976155;28;43377;-71
2022/09/18 02:55:22;;;;;;;0.60;0.60;;;21.90;66.30;;;;;;4996092;28;43827;-70
2022/09/18 02:57:52;;;;;;;0.87;0.87;;;22.00;66.00;;;;;;4975257;28;44931;-72
2022/09/18 03:00:22;;;;;;;0.70;0.70;;;22.10;65.60;;;;;;4982122;28;43462;-71
2022/09/18 03:02:50;;;;;;;0.80;0.80;;;22.20;65.10;;;;;;4983730;28;43560;-73
2022/09/18 03:05:31;;;;;;;0.77;0.77;;;22.30;65.00;;;;;;4986613;28;43841;-71
2022/09/18 03:08:01;;;;;;;0.73;0.73;;;22.20;64.90;;;;;;4971911;28;43479;-72
2022/09/18 03:10:31;;;;;;;0.70;0.70;;;22.10;65.10;;;;;;4981728;28;43992;-71
2022/09/18 03:12:59;;;;;;;0.80;0.80;;;22.10;65.40;;;;;;4997370;28;44029;-72
2022/09/18 03:15:29;;;;;;;1.00;1.00;;;22.00;65.90;;;;;;4988030;28;46021;-71
2022/09/18 03:17:57;;;;;;;1.53;1.20;;;22.00;65.80;;;;;;4985549;28;45013;-70
2022/09/18 03:20:25;;;;;;;1.90;1.10;;;21.90;65.80;;;;;;4980639;28;43481;-70
2022/09/18 03:22:53;;;;;;;2.10;2.00;;;21.90;65.80;;;;;;4974319;28;43542;-71
2022/09/18 03:25:21;;;;;;;3.87;1.67;;;21.90;66.10;;;;;;4984084;28;45735;-70
2022/09/18 03:27:53;;;;;;;2.70;2.10;;;21.80;66.30;;;;;;4997604;28;43381;-71
2022/09/18 03:30:30;;;;;;;3.80;2.27;;;21.80;66.10;;;;;;4979888;28;43715;-71
2022/09/18 03:32:58;;;;;;;3.93;2.17;;;21.80;66.20;;;;;;4976892;28;43581;-72
2022/09/18 03:35:28;;;;;;;5.43;2.90;;;21.80;66.10;;;;;;4981383;28;43916;-71
2022/09/18 03:37:56;;;;;;;5.30;2.60;;;21.80;66.40;;;;;;4978604;28;44324;-72
2022/09/18 03:40:29;;;;;;;3.60;2.97;;;21.80;66.60;;;;;;4972124;28;43505;-72
2022/09/18 03:42:58;;;;;;;8.17;3.17;;;21.90;66.30;;;;;;4984174;28;43460;-71
2022/09/18 03:45:26;;;;;;;3.90;3.17;;;22.00;65.90;;;;;;4997588;28;45993;-70
2022/09/18 03:47:56;;;;;;;6.67;3.57;;;22.20;65.40;;;;;;4999763;28;43361;-71
2022/09/18 03:50:27;;;;;;;8.30;3.87;;;22.20;65.10;;;;;;4983714;28;43420;-72
2022/09/18 03:52:56;;;;;;;8.30;4.37;;;22.20;65.00;;;;;;4987981;28;43939;-71
2022/09/18 03:55:34;;;;;;;5.83;3.50;;;22.20;65.10;;;;;;4982205;28;44004;-71
2022/09/18 03:58:21;;;;;;;6.83;3.83;;;22.10;65.30;;;;;;4997316;28;43428;-71
2022/09/18 04:01:15;;;;;;;8.07;4.13;;;22.00;65.90;;;;;;4995455;28;43518;-70
2022/09/18 04:04:04;;;;;;;9.00;4.90;;;22.00;66.00;;;;;;4989074;28;43483;-74
2022/09/18 04:07:07;;;;;;;8.73;4.10;;;21.90;65.90;;;;;;4972812;28;43821;-71
2022/09/18 04:09:53;;;;;;;9.10;4.87;;;21.80;65.90;;;;;;5004784;28;43480;-70
2022/09/18 04:12:22;;;;;;;7.30;4.23;;;21.80;66.10;;;;;;4978277;28;43503;-69
2022/09/18 04:15:04;;;;;;;10.33;4.90;;;21.80;66.50;;;;;;4980128;28;43419;-71
2022/09/18 04:17:32;;;;;;;12.13;5.10;;;21.90;66.20;;;;;;4978741;28;45616;-71
2022/09/18 04:20:02;;;;;;;10.40;4.80;;;22.00;65.90;;;;;;4995340;28;43477;-71
2022/09/18 04:22:31;;;;;;;11.43;4.83;;;22.00;65.70;;;;;;4983125;28;43743;-71
2022/09/18 04:24:59;;;;;;;10.97;5.10;;;22.00;65.50;;;;;;4988437;28;43456;-71
2022/09/18 04:27:27;;;;;;;9.70;5.57;;;22.00;66.00;;;;;;4982987;28;43815;-72
2022/09/18 04:29:55;;;;;;;13.00;6.03;;;22.00;66.00;;;;;;4977911;28;44726;-72
2022/09/18 04:32:23;;;;;;;9.80;5.03;;;22.00;65.90;;;;;;4980370;28;43366;-70
2022/09/18 04:34:51;;;;;;;9.17;4.90;;;21.90;65.80;;;;;;4977401;28;43474;-72
2022/09/18 04:37:21;;;;;;;8.53;5.07;;;21.90;65.90;;;;;;4972477;28;44082;-72
2022/09/18 04:39:52;;;;;;;8.90;4.90;;;21.80;66.30;;;;;;4982592;28;44390;-71
2022/09/18 04:42:21;;;;;;;11.70;5.53;;;21.80;66.20;;;;;;4991142;28;43337;-71
2022/09/18 04:44:50;;;;;;;11.57;5.47;;;22.00;66.00;;;;;;4977641;28;43525;-71
2022/09/18 04:47:18;;;;;;;11.13;6.07;;;22.00;65.80;;;;;;4994654;28;43844;-71
2022/09/18 04:49:46;;;;;;;8.70;5.33;;;22.00;65.60;;;;;;4986368;28;44728;-72
2022/09/18 04:52:14;;;;;;;7.10;4.67;;;21.90;65.80;;;;;;4971010;28;43447;-70
2022/09/18 04:54:43;;;;;;;10.23;5.27;;;21.90;66.00;;;;;;4970427;28;43516;-72
2022/09/18 04:57:11;;;;;;;8.90;5.20;;;21.90;65.90;;;;;;4974449;28;43899;-71
2022/09/18 04:59:44;;;;;;;8.83;5.30;;;21.90;65.90;;;;;;4978429;28;44487;-72
2022/09/18 05:02:12;;;;;;;9.23;5.60;;;21.80;65.90;;;;;;4990560;28;43710;-70
2022/09/18 05:04:40;;;;;;;9.13;5.47;;;21.80;67.10;;;;;;4970673;28;44126;-72
2022/09/18 05:07:18;;;;;;;10.33;5.03;;;21.80;66.30;;;;;;4970530;28;45933;-70
2022/09/18 05:09:50;;;;;;;8.87;4.83;;;21.80;66.20;;;;;;4976466;28;44543;-72
2022/09/18 05:12:18;;;;;;;11.13;5.60;;;21.80;66.20;;;;;;4981436;28;43406;-69
2022/09/18 05:14:46;;;;;;;8.53;5.20;;;21.70;66.10;;;;;;4981286;28;44922;-70
2022/09/18 05:17:17;;;;;;;10.43;5.80;;;21.70;66.50;;;;;;4978887;28;43957;-71
2022/09/18 05:19:59;;;;;;;8.80;5.60;;;21.70;66.50;;;;;;4983674;28;43877;-72
2022/09/18 05:22:33;;;;;;;7.33;5.23;;;21.70;66.30;;;;;;4982588;28;43411;-71
2022/09/18 05:25:04;;;;;;;6.00;4.60;;;21.70;66.20;;;;;;4980330;28;43622;-71
2022/09/18 05:27:32;;;;;;;9.70;5.50;;;21.70;66.30;;;;;;4983649;28;46047;-73
2022/09/18 05:30:00;;;;;;;10.37;6.07;;;21.70;66.80;;;;;;4971694;28;44927;-71
2022/09/18 05:32:54;;;;;;;8.57;5.13;;;21.70;66.50;;;;;;4977231;28;43486;-70
2022/09/18 05:35:27;;;;;;;9.97;5.23;;;21.90;66.10;;;;;;4977686;28;43370;-71
2022/09/18 05:37:56;;;;;;;7.37;5.07;;;22.10;65.70;;;;;;4982497;28;46131;-71
2022/09/18 05:40:29;;;;;;;9.13;5.60;;;22.20;65.20;;;;;;4970723;28;43351;-70
2022/09/18 05:42:59;;;;;;;8.00;5.10;;;22.20;65.70;;;;;;4978655;28;43438;-71
2022/09/18 05:45:29;;;;;;;9.43;5.37;;;22.20;64.90;;;;;;5003313;28;43978;-70
2022/09/18 05:47:59;;;;;;;8.27;5.07;;;22.10;65.10;;;;;;4973567;28;45819;-70
2022/09/18 05:50:29;;;;;;;7.13;5.40;;;22.00;65.40;;;;;;4976398;28;43438;-70
2022/09/18 05:52:59;;;;;;;8.77;5.30;;;21.90;65.90;;;;;;4981995;28;43469;-70
2022/09/18 05:55:33;;;;;;;7.53;5.03;;;21.90;65.80;;;;;;4988837;28;43460;-70
2022/09/18 05:58:01;;;;;;;7.00;4.97;;;21.90;65.90;;;;;;4970418;28;44127;-72
2022/09/18 06:00:30;;;;;;;8.27;5.13;;;21.80;65.90;;;;;;4987432;28;44351;-71
2022/09/18 06:03:06;;;;;;;6.83;4.87;;;21.80;66.30;;;;;;4971041;28;43687;-72
2022/09/18 06:05:36;;;;;;;7.93;4.97;;;21.80;66.40;;;;;;4999706;28;44104;-74
2022/09/18 06:08:05;;;;;;;6.90;4.83;;;21.70;66.20;;;;;;4980712;28;44029;-70
2022/09/18 06:10:36;;;;;;;5.67;4.10;;;21.70;66.20;;;;;;4982702;28;43594;-70
2022/09/18 06:13:07;;;;;;;6.00;4.60;;;21.70;66.20;;;;;;4986971;28;43896;-71
2022/09/18 06:15:43;;;;;;;5.53;4.90;;;21.60;66.60;;;;;;4975967;28;43529;-70
2022/09/18 06:18:13;;;;;;;8.17;5.23;;;21.70;66.60;;;;;;4976010;28;44989;-74
2022/09/18 06:20:41;;;;;;;7.30;5.17;;;21.90;66.30;;;;;;4989744;28;43392;-72
2022/09/18 06:23:09;;;;;;;7.67;4.60;;;22.00;65.80;;;;;;4994729;28;43447;-70
2022/09/18 06:25:58;;;;;;;7.23;4.93;;;22.10;65.30;;;;;;4982399;28;43608;-71
2022/09/18 06:28:26;;;;;;;8.47;5.37;;;22.20;65.10;;;;;;4994302;28;43968;-71
2022/09/18 06:30:54;;;;;;;5.17;4.47;;;22.10;65.10;;;;;;4971571;28;43881;-73
2022/09/18 06:33:22;;;;;;;5.57;4.13;;;22.00;65.40;;;;;;4978466;28;43809;-70
2022/09/18 06:35:50;;;;;;;5.83;4.90;;;21.90;65.60;;;;;;4977888;28;43439;-69
2022/09/18 06:38:27;;;;;;;7.13;4.97;;;21.80;66.10;;;;;;4983716;28;43935;-71
2022/09/18 06:40:56;;;;;;;7.60;4.23;;;21.80;66.00;;;;;;4975742;28;44620;-71
2022/09/18 06:43:32;;;;;;;4.87;4.33;;;21.80;66.00;;;;;;4976228;28;43433;-71
2022/09/18 06:46:14;;;;;;;6.57;4.67;;;21.70;66.10;;;;;;4986241;28;44029;-71
2022/09/18 06:48:48;;;;;;;5.00;4.13;;;21.70;66.40;;;;;;4976753;28;44060;-72
2022/09/18 06:51:16;;;;;;;6.13;4.90;;;21.70;66.60;;;;;;4978292;28;44442;-70
2022/09/18 06:54:00;;;;;;;5.03;4.43;;;21.70;66.30;;;;;;4979872;28;43489;-71
2022/09/18 06:56:30;;;;;;;4.23;3.73;;;21.70;67.00;;;;;;4969860;28;43887;-71
2022/09/18 06:58:58;;;;;;;5.50;4.43;;;21.60;66.20;;;;;;4969657;28;45675;-70
2022/09/18 07:01:26;;;;;;;5.50;4.20;;;21.60;66.70;;;;;;4975778;28;44738;-69
2022/09/18 07:04:06;;;;;;;5.00;4.40;;;21.60;66.70;;;;;;4998815;28;44408;-70
2022/09/18 07:06:42;;;;;;;5.30;4.20;;;21.60;66.50;;;;;;4995085;28;43531;-70
2022/09/18 07:09:10;;;;;;;4.23;3.93;;;21.60;66.50;;;;;;5005718;28;45584;-70
2022/09/18 07:11:58;;;;;;;5.20;4.30;;;21.60;66.50;;;;;;4978783;28;43439;-72
2022/09/18 07:14:40;;;;;;;5.10;4.20;;;21.60;67.00;;;;;;4970147;28;43397;-71
2022/09/18 07:17:10;;;;;;;3.90;3.60;;;21.70;66.80;;;;;;4983795;28;43649;-70
2022/09/18 07:19:45;;;;;;;4.30;3.90;;;21.80;67.10;;;;;;4980455;28;43849;-70
2022/09/18 07:22:16;;;;;;;5.00;3.90;;;22.00;65.80;;;;;;4978658;28;43493;-72
2022/09/18 07:24:47;;;;;;;4.70;3.63;;;22.10;65.30;;;;;;4984739;28;44032;-71
2022/09/18 07:27:16;;;;;;;4.23;3.83;;;22.20;65.10;;;;;;4977011;28;43576;-71
2022/09/18 07:29:46;;;;;;;5.00;4.13;;;22.10;65.00;;;;;;4986999;28;45043;-71
2022/09/18 07:32:15;;;;;;;4.47;4.07;;;22.00;65.20;;;;;;4982488;28;43591;-71
2022/09/18 07:34:45;;;;;;;4.10;3.70;;;21.90;65.40;;;;;;4976244;28;43841;-70
2022/09/18 07:37:19;;;;;;;3.57;3.27;;;21.90;66.00;;;;;;4977500;28;44191;-70
2022/09/18 07:39:55;;;;;;;4.70;3.77;;;21.80;65.80;;;;;;4972501;28;43907;-69
2022/09/18 07:42:43;;;;;;;4.97;3.83;;;21.80;65.90;;;;;;4990215;28;43965;-71
2022/09/18 07:45:11;;;;;;;4.30;3.70;;;21.70;66.00;;;;;;4982606;28;43568;-71
2022/09/18 07:47:40;;;;;;;4.87;3.53;;;21.70;66.60;;;;;;4974707;28;43435;-69
2022/09/18 07:50:14;;;;;;;4.10;3.80;;;21.70;66.50;;;;;;4978400;28;45654;-72
2022/09/18 07:52:50;;;;;;;3.37;3.17;;;21.70;66.40;;;;;;4975620;28;44320;-69
2022/09/18 07:55:20;;;;;;;4.23;3.80;;;21.60;66.40;;;;;;4987742;28;43508;-70
2022/09/18 07:57:56;;;;;;;3.80;3.40;;;21.60;66.30;;;;;;4984396;28;43523;-72
2022/09/18 08:00:43;;;;;;;4.30;3.87;;;21.60;66.90;;;;;;5004054;28;44000;-70
2022/09/18 08:03:12;;;;;;;4.03;3.73;;;21.70;66.70;;;;;;4976708;28;44370;-70
2022/09/18 08:05:57;;;;;;;3.70;3.40;;;21.80;66.20;;;;;;4985350;28;43435;-71
2022/09/18 08:08:25;;;;;;;3.40;3.10;;;22.00;65.80;;;;;;5002610;28;43467;-71
2022/09/18 08:11:12;;;;;;;3.67;3.47;;;22.00;65.50;;;;;;4972543;28;45861;-70
2022/09/18 08:14:01;;;;;;;3.37;3.13;;;22.00;65.40;;;;;;4983341;28;43400;-71
2022/09/18 08:16:38;;;;;;;3.33;3.10;;;21.90;65.70;;;;;;4977027;28;43335;-71
2022/09/18 08:19:09;;;;;;;3.27;3.07;;;21.80;65.90;;;;;;4991965;28;43436;-70
2022/09/18 08:21:43;;;;;;;3.77;3.47;;;21.70;66.40;;;;;;4982497;28;43774;-72
2022/09/18 08:24:15;;;;;;;3.10;2.90;;;21.70;66.20;;;;;;4977780;28;43507;-72
2022/09/18 08:26:44;;;;;;;3.20;3.00;;;21.70;66.20;;;;;;4983225;28;43370;-71
2022/09/18 08:29:17;;;;;;;3.33;3.07;;;21.60;66.20;;;;;;5001732;28;43543;-70
2022/09/18 08:31:53;;;;;;;3.27;3.07;;;21.60;66.40;;;;;;4984621;28;45563;-72
2022/09/18 08:34:22;;;;;;;3.20;2.90;;;21.60;66.90;;;;;;4979500;28;44335;-71
2022/09/18 08:36:50;;;;;;;3.27;3.07;;;21.70;66.60;;;;;;4974180;28;43996;-70
2022/09/18 08:39:25;;;;;;;2.87;2.67;;;21.80;66.20;;;;;;4989138;28;43570;-71
2022/09/18 08:42:13;;;;;;;3.17;2.93;;;21.90;66.10;;;;;;4982310;28;45609;-73
2022/09/18 08:44:46;;;;;;;2.67;2.57;;;21.80;65.90;;;;;;4980378;28;44479;-71
2022/09/18 08:47:19;;;;;;;3.07;2.87;;;21.80;66.40;;;;;;4971139;28;43465;-71
2022/09/18 08:49:50;;;;;;;3.10;2.90;;;21.80;66.40;;;;;;4972996;28;43934;-70
2022/09/18 08:52:19;;;;;;;2.87;2.67;;;21.80;66.20;;;;;;4976868;28;45746;-72
2022/09/18 08:54:55;;;;;;;3.00;2.87;;;21.70;66.10;;;;;;4997104;28;43391;-71
2022/09/18 08:57:42;;;;;;;2.47;2.37;;;21.70;66.30;;;;;;4995667;28;43392;-71
2022/09/18 09:00:18;;;;;;;2.80;2.60;;;21.60;66.50;;;;;;4977074;28;44042;-69
2022/09/18 09:02:53;;;;;;;2.73;2.63;;;21.60;66.70;;;;;;4973903;28;44032;-71
2022/09/18 09:05:22;;;;;;;3.10;2.90;;;21.60;66.60;;;;;;4970486;28;46042;-71
2022/09/18 09:08:21;;;;;;;2.70;2.60;;;21.60;66.60;;;;;;4976440;28;43439;-72
2022/09/18 09:10:54;;;;;;;2.70;2.60;;;21.60;66.60;;;;;;4982912;28;43536;-70
2022/09/18 09:13:41;;;;;;;2.80;2.70;;;21.50;67.00;;;;;;4978978;28;43930;-71
2022/09/18 09:16:13;;;;;;;2.60;2.50;;;21.60;66.90;;;;;;4990170;28;43433;-70
2022/09/18 09:18:47;;;;;;;2.60;2.50;;;21.70;66.40;;;;;;5002200;28;43463;-71
2022/09/18 09:21:18;;;;;;;2.57;2.47;;;21.90;66.00;;;;;;4983065;28;43567;-72
2022/09/18 09:23:52;;;;;;;2.60;2.50;;;22.00;65.60;;;;;;4975990;28;44037;-70
2022/09/18 09:26:37;;;;;;;2.70;2.60;;;22.00;65.40;;;;;;4999047;28;43478;-71
2022/09/18 09:29:15;;;;;;;2.53;2.43;;;21.90;65.50;;;;;;4974171;28;43493;-71
2022/09/18 09:32:05;;;;;;;2.53;2.43;;;21.80;65.80;;;;;;4990560;28;43353;-71
2022/09/18 09:35:08;;;;;;;2.60;2.50;;;21.70;66.20;;;;;;4980806;28;44356;-70
2022/09/18 09:37:45;;;;;;;2.40;2.30;;;21.70;66.50;;;;;;4989963;28;43986;-73
2022/09/18 09:40:18;;;;;;;2.33;2.23;;;21.70;66.40;;;;;;4977413;28;43369;-70
2022/09/18 09:42:49;;;;;;;2.33;2.23;;;21.60;66.40;;;;;;4992515;28;43464;-72
2022/09/18 09:45:21;;;;;;;2.20;2.10;;;21.60;66.50;;;;;;4974965;28;45952;-71
2022/09/18 09:47:55;;;;;;;2.00;1.90;;;21.60;67.00;;;;;;4972845;28;43483;-70
2022/09/18 09:50:43;;;;;;;2.20;2.10;;;21.60;66.80;;;;;;4981428;28;44076;-71
2022/09/18 09:53:12;;;;;;;2.20;2.10;;;21.70;66.40;;;;;;4979562;28;43876;-70
2022/09/18 09:55:47;;;;;;;2.20;2.10;;;21.80;66.20;;;;;;4995691;28;44015;-74
2022/09/18 09:58:24;;;;;;;2.40;2.30;;;21.80;66.10;;;;;;4983239;28;43967;-71
2022/09/18 10:01:01;;;;;;;2.03;1.93;;;21.70;66.20;;;;;;5009038;28;43388;-72
2022/09/18 10:03:35;;;;;;;1.90;1.90;;;21.70;66.50;;;;;;5004484;28;43986;-71
2022/09/18 10:06:10;;;;;;;1.83;1.83;;;21.80;66.40;;;;;;4974798;28;43842;-73
2022/09/18 10:08:44;;;;;;;2.20;2.10;;;21.70;66.20;;;;;;4970674;28;44879;-70
2022/09/18 10:11:12;;;;;;;1.90;1.90;;;21.70;66.30;;;;;;5002842;28;43506;-71
2022/09/18 10:13:43;;;;;;;2.10;2.00;;;21.60;66.60;;;;;;4976039;28;44086;-71
2022/09/18 10:16:14;;;;;;;1.90;1.90;;;21.60;66.80;;;;;;4981568;28;44102;-70
2022/09/18 10:18:45;;;;;;;1.80;1.80;;;21.60;66.60;;;;;;4999515;28;43329;-73
2022/09/18 10:21:14;;;;;;;1.90;1.90;;;21.60;66.50;;;;;;4985518;28;43522;-72
2022/09/18 10:23:42;;;;;;;2.27;2.17;;;21.60;66.60;;;;;;4976141;28;43424;-71
2022/09/18 10:26:15;;;;;;;2.03;2.00;;;21.60;67.10;;;;;;4981936;28;43968;-69
2022/09/18 10:28:43;;;;;;;1.80;1.70;;;21.60;67.10;;;;;;4988959;28;43856;-71
2022/09/18 10:31:12;;;;;;;1.43;1.43;;;21.70;66.80;;;;;;4973769;28;44214;-71
2022/09/18 10:33:48;;;;;;;1.90;1.80;;;21.80;66.40;;;;;;4979913;28;43631;-72
2022/09/18 10:36:24;;;;;;;2.60;2.40;;;21.90;65.60;;;;;;4977982;28;45883;-71
2022/09/18 10:38:54;;;;;;;2.23;2.10;;;22.00;65.00;;;;;;4972765;28;43648;-71
2022/09/18 10:41:34;;;;;;;2.03;1.93;;;21.90;65.30;;;;;;4970020;28;43515;-71
2022/09/18 10:44:18;;;;;;;1.70;1.70;;;21.80;65.50;;;;;;4977570;28;43562;-70
2022/09/18 10:46:52;;;;;;;2.17;2.07;;;21.80;65.80;;;;;;4969280;28;46003;-72
2022/09/18 10:49:23;;;;;;;1.77;1.73;;;21.70;66.30;;;;;;4975575;28;43508;-70
2022/09/18 10:52:14;;;;;;;1.60;1.60;;;21.70;66.30;;;;;;4973752;28;43933;-71
2022/09/18 10:55:00;;;;;;;1.70;1.70;;;21.60;66.20;;;;;;4980694;28;44045;-70
2022/09/18 10:57:33;;;;;;;1.53;1.53;;;21.60;66.30;;;;;;4972823;28;45706;-72
2022/09/18 11:00:13;;;;;;;1.77;1.77;;;21.60;66.70;;;;;;4976220;28;44574;-71
2022/09/18 11:02:44;;;;;;;1.80;1.70;;;21.60;66.80;;;;;;4981734;28;43804;-72
2022/09/18 11:05:17;;;;;;;1.63;1.53;;;21.70;66.50;;;;;;4984368;28;43565;-71
2022/09/18 11:07:50;;;;;;;1.60;1.60;;;21.80;66.20;;;;;;4984591;28;43795;-72
2022/09/18 11:10:19;;;;;;;1.50;1.50;;;21.80;66.10;;;;;;4984776;28;43376;-70
2022/09/18 11:12:49;;;;;;;1.50;1.50;;;21.80;66.20;;;;;;5004186;28;43682;-71
2022/09/18 11:15:29;;;;;;;1.87;1.77;;;21.80;66.50;;;;;;4979449;28;43659;-70
2022/09/18 11:17:59;;;;;;;1.80;1.80;;;21.80;66.30;;;;;;4978815;28;45781;-71
2022/09/18 11:20:31;;;;;;;1.53;1.53;;;21.70;66.10;;;;;;4977511;28;44754;-72
2022/09/18 11:23:15;;;;;;;1.70;1.60;;;21.70;66.20;;;;;;4980277;28;44460;-71
2022/09/18 11:25:44;;;;;;;1.33;1.33;;;21.60;66.60;;;;;;4978852;28;43601;-71
2022/09/18 11:28:22;;;;;;;1.50;1.50;;;21.60;66.70;;;;;;4977663;28;44038;-74
2022/09/18 11:30:55;;;;;;;1.50;1.50;;;21.60;66.50;;;;;;4990582;28;44040;-70
2022/09/18 11:33:26;;;;;;;1.30;1.30;;;21.60;66.50;;;;;;4974263;28;43497;-69
2022/09/18 11:36:00;;;;;;;1.63;1.63;;;21.60;66.60;;;;;;4978487;28;44040;-72
2022/09/18 11:38:30;;;;;;;1.30;1.30;;;21.50;67.00;;;;;;4999864;28;45922;-72
2022/09/18 11:41:00;;;;;;;1.50;1.50;;;21.60;67.00;;;;;;4971828;28;44425;-71
2022/09/18 11:43:35;;;;;;;1.40;1.40;;;21.70;66.70;;;;;;4978702;28;43377;-71
2022/09/18 11:46:10;;;;;;;1.40;1.40;;;21.80;66.20;;;;;;4981042;28;43482;-69
2022/09/18 11:48:40;;;;;;;1.40;1.40;;;21.90;65.90;;;;;;4978319;28;45565;-73
2022/09/18 11:51:14;;;;;;;1.43;1.43;;;21.90;65.80;;;;;;4976625;28;45127;-74
2022/09/18 11:53:44;;;;;;;1.37;1.37;;;21.80;65.80;;;;;;4980254;28;43379;-72
2022/09/18 11:56:14;;;;;;;1.47;1.47;;;21.70;65.90;;;;;;4974325;28;43556;-69
2022/09/18 11:58:43;;;;;;;1.30;1.30;;;21.70;66.40;;;;;;4975425;28;44179;-70
2022/09/18 12:01:24;;;;;;;1.33;1.33;;;21.60;66.60;;;;;;4974530;28;43990;-71
2022/09/18 12:03:56;;;;;;;1.30;1.30;;;21.60;66.40;;;;;;5006952;28;43446;-70
2022/09/18 12:06:32;;;;;;;1.40;1.40;;;21.60;66.50;;;;;;4980855;28;43569;-72
2022/09/18 12:09:04;;;;;;;1.30;1.30;;;21.50;67.20;;;;;;4983528;28;45459;-71
2022/09/18 12:11:34;;;;;;;1.53;1.37;;;21.50;67.00;;;;;;5002483;28;43438;-70
2022/09/18 12:14:05;;;;;;;1.20;1.20;;;21.60;66.80;;;;;;4993712;28;43481;-70
2022/09/18 12:16:42;;;;;;;1.57;1.57;;;21.70;66.40;;;;;;4979787;28;43452;-71
2022/09/18 12:19:15;;;;;;;1.30;1.30;;;21.80;66.00;;;;;;4973414;28;45506;-70
2022/09/18 12:21:47;;;;;;;1.20;1.20;;;21.80;66.00;;;;;;4971619;28;44502;-71
2022/09/18 12:24:16;;;;;;;1.47;1.47;;;21.70;66.10;;;;;;4978468;28;43406;-71
2022/09/18 12:26:58;;;;;;;1.27;1.27;;;21.70;66.50;;;;;;4982591;28;44006;-71
2022/09/18 12:29:50;;;;;;;1.30;1.30;;;21.70;66.30;;;;;;4978775;28;47441;-70
2022/09/18 12:32:35;;;;;;;1.37;1.37;;;21.70;66.40;;;;;;4994033;28;43455;-71
2022/09/18 12:35:06;;;;;;;1.20;1.20;;;21.60;66.40;;;;;;4971410;28;43453;-71
2022/09/18 12:37:45;;;;;;;1.37;1.37;;;21.50;66.80;;;;;;4997868;28;43404;-69
2022/09/18 12:40:37;;;;;;;1.30;1.30;;;21.60;66.70;;;;;;4996635;28;43812;-70
2022/09/18 12:43:23;;;;;;;1.27;1.27;;;21.50;66.60;;;;;;4997931;28;43431;-69
2022/09/18 12:46:04;;;;;;;1.20;1.20;;;21.50;66.60;;;;;;4993341;28;43413;-72
2022/09/18 12:48:41;;;;;;;1.10;1.10;;;21.50;66.80;;;;;;4980452;28;43414;-71
2022/09/18 12:51:23;;;;;;;1.23;1.23;;;21.50;67.20;;;;;;4998616;28;43600;-71
2022/09/18 12:53:57;;;;;;;1.10;1.10;;;21.60;66.90;;;;;;4994459;28;43473;-69
2022/09/18 12:56:33;;;;;;;1.10;1.10;;;21.70;66.40;;;;;;4991668;28;43787;-71
2022/09/18 12:59:25;;;;;;;1.20;1.20;;;21.90;66.10;;;;;;4979689;28;43495;-70
2022/09/18 13:01:54;;;;;;;1.13;1.13;;;21.90;65.70;;;;;;4995167;28;43608;-70
2022/09/18 13:04:23;;;;;;;1.00;1.00;;;21.90;65.80;;;;;;5001310;28;43394;-71
2022/09/18 13:06:57;;;;;;;1.10;1.10;;;21.80;65.90;;;;;;4990348;28;43789;-71
2022/09/18 13:09:29;;;;;;;1.13;1.13;;;21.70;66.00;;;;;;4997001;28;43373;-71
2022/09/18 13:11:59;;;;;;;1.10;1.10;;;21.60;66.50;;;;;;4994006;28;43807;-70
2022/09/18 13:14:29;;;;;;;1.37;1.37;;;21.60;66.50;;;;;;4988846;28;43509;-71
2022/09/18 13:16:58;;;;;;;1.10;1.10;;;21.60;66.50;;;;;;5000077;28;43488;-71